Terminal Aerodrome Forecast
Issued by NWS

Home | Current Version | Previous Version | Text Only | Print | Product List | Glossary On
Versions: 1 2 3 4 5 6 7 8 9 10 11 12 13 14 15 16 17 18 19 20 21 22 23 24 25 26 27 28 29 30 31 32 33 34
000
FTUS46 KPQR 051125
TAFONP
TAF
KONP 051125Z 0512/0612 19007KT P6SM -SHRA SCT025 BKN040 OVC070
      TEMPO 0512/0516 5SM BR BKN025
     FM052100 29009KT P6SM -SHRA FEW015 SCT030 BKN040
     FM060100 35005KT P6SM VCSH BKN050
     FM060600 VRB03KT P6SM SCT250=

USA.gov is the U.S. government's official web portal to all federal, state and local government web resources and services.